Time;durP1;ratioP1;P1;durP2;ratioP2;P2;SDS_P1;SDS_P2;PMS_P1;PMS_P2;Temp;Humidity;BMP_temperature;BMP_pressure;BME280_temperature;BME280_humidity;BME280_pressure;Samples;Min_cycle;Max_cycle;Signal;HPM_P1;HPM_P2
2021/08/06 00:00:10;;;;;;;2.13;1.23;;;;;;;14.43;100.00;95146.03;1034594;28;20018;-65
2021/08/06 00:00:40;;;;;;;2.28;1.13;;;;;;;14.36;100.00;95136.66;1035004;28;20041;-68
2021/08/06 00:01:11;;;;;;;3.20;1.30;;;;;;;14.42;100.00;95145.25;1033606;28;20045;-67
2021/08/06 00:01:41;;;;;;;3.05;1.40;;;;;;;14.33;100.00;95121.44;1034061;28;20026;-66
2021/08/06 00:02:14;;;;;;;2.42;1.30;;;;;;;14.45;100.00;95144.63;1038299;28;20033;-69
2021/08/06 00:02:44;;;;;;;1.38;1.27;;;;;;;14.45;100.00;95138.56;1042785;28;20013;-68
2021/08/06 00:03:15;;;;;;;1.48;1.10;;;;;;;14.38;100.00;95133.72;1047102;28;20031;-68
2021/08/06 00:03:45;;;;;;;1.55;1.10;;;;;;;14.42;100.00;95137.34;1042205;28;20013;-68
2021/08/06 00:04:16;;;;;;;1.58;1.23;;;;;;;14.43;100.00;95143.38;1046479;28;20021;-68
2021/08/06 00:04:46;;;;;;;4.05;1.33;;;;;;;14.43;100.00;95140.75;1042682;28;20013;-69
2021/08/06 00:05:16;;;;;;;2.25;1.63;;;;;;;14.37;100.00;95125.03;1038917;28;20052;-69
2021/08/06 00:05:47;;;;;;;1.67;1.40;;;;;;;14.44;100.00;95147.56;1042482;28;20070;-68
2021/08/06 00:06:17;;;;;;;1.80;1.30;;;;;;;14.43;100.00;95135.47;1037420;28;20467;-68
2021/08/06 00:06:48;;;;;;;3.20;1.27;;;;;;;14.41;100.00;95132.34;1034601;28;20026;-69
2021/08/06 00:07:19;;;;;;;2.05;0.90;;;;;;;14.37;100.00;95121.59;1034829;28;20026;-68
2021/08/06 00:07:49;;;;;;;1.65;1.20;;;;;;;14.43;100.00;95133.59;1036422;28;20029;-68
2021/08/06 00:08:21;;;;;;;2.25;1.15;;;;;;;14.48;100.00;95137.97;1030611;28;20508;-68
2021/08/06 00:08:51;;;;;;;1.10;1.00;;;;;;;14.48;100.00;95132.69;1030773;28;20456;-68
2021/08/06 00:09:22;;;;;;;1.67;1.20;;;;;;;14.44;100.00;95132.50;1030971;28;20026;-68
2021/08/06 00:09:52;;;;;;;1.33;0.98;;;;;;;14.48;100.00;95141.38;1034800;28;20010;-68
2021/08/06 00:10:22;;;;;;;1.40;1.08;;;;;;;14.48;100.00;95132.69;1026543;28;20026;-68
2021/08/06 00:10:53;;;;;;;3.17;1.20;;;;;;;14.48;100.00;95135.31;1030534;28;20022;-65
2021/08/06 00:11:29;;;;;;;3.85;1.58;;;;;;;14.48;100.00;95137.97;1033452;28;20026;-69
2021/08/06 00:11:59;;;;;;;2.05;1.23;;;;;;;14.47;100.00;95131.13;1031343;28;20030;-68
2021/08/06 00:12:29;;;;;;;4.00;1.23;;;;;;;14.45;100.00;95128.00;1034605;28;20037;-69
2021/08/06 00:13:00;;;;;;;2.97;1.08;;;;;;;14.46;100.00;95138.28;1030892;28;20022;-65
2021/08/06 00:13:30;;;;;;;2.33;1.17;;;;;;;14.46;100.00;95129.59;1034423;28;20602;-68
2021/08/06 00:14:01;;;;;;;2.67;1.33;;;;;;;14.47;100.00;95131.13;1045131;28;21632;-68
2021/08/06 00:14:32;;;;;;;1.17;1.08;;;;;;;14.27;100.00;95109.44;1042569;28;20025;-68
2021/08/06 00:15:03;;;;;;;1.30;1.20;;;;;;;14.44;100.00;95132.50;1034366;28;20508;-69
2021/08/06 00:15:34;;;;;;;1.17;1.08;;;;;;;14.44;100.00;95131.75;1030596;28;20023;-68
2021/08/06 00:16:04;;;;;;;2.22;1.08;;;;;;;14.43;100.00;95130.97;1030287;28;20015;-68
2021/08/06 00:16:35;;;;;;;2.20;1.02;;;;;;;14.36;100.00;95117.41;1030872;28;20069;-69
2021/08/06 00:17:05;;;;;;;1.20;1.10;;;;;;;14.39;100.00;95130.78;1035617;28;20506;-68
2021/08/06 00:17:35;;;;;;;1.15;1.08;;;;;;;14.38;100.00;95126.59;1038700;28;20029;-69
2021/08/06 00:18:06;;;;;;;1.23;1.00;;;;;;;14.37;100.00;95132.94;1030705;28;20021;-69
2021/08/06 00:18:36;;;;;;;1.40;1.30;;;;;;;14.35;100.00;95134.31;1041172;28;20556;-69
2021/08/06 00:19:07;;;;;;;1.10;1.00;;;;;;;14.33;100.00;95131.22;1046801;28;20024;-69
2021/08/06 00:19:37;;;;;;;2.38;1.27;;;;;;;14.30;100.00;95129.94;1042670;28;20025;-68
2021/08/06 00:20:08;;;;;;;1.42;1.23;;;;;;;14.31;100.00;95134.13;1034032;28;20048;-69
2021/08/06 00:20:39;;;;;;;2.17;1.20;;;;;;;14.31;100.00;95128.84;1038983;28;20827;-69
2021/08/06 00:21:09;;;;;;;1.15;0.95;;;;;;;14.31;100.00;95133.38;1042698;28;20031;-68
2021/08/06 00:21:40;;;;;;;1.23;1.10;;;;;;;14.31;100.00;95136.00;1042591;28;20491;-66
2021/08/06 00:22:10;;;;;;;1.48;1.00;;;;;;;14.30;100.00;95127.31;1046447;28;20029;-69
2021/08/06 00:22:41;;;;;;;1.48;1.08;;;;;;;14.33;100.00;95131.22;1042875;28;20028;-68
2021/08/06 00:23:11;;;;;;;2.40;1.27;;;;;;;14.32;100.00;95129.66;1042697;28;20403;-69
2021/08/06 00:23:41;;;;;;;2.08;1.30;;;;;;;14.27;100.00;95124.50;1038044;28;20034;-65
2021/08/06 00:24:12;;;;;;;1.30;1.00;;;;;;;14.30;100.00;95132.59;1034679;28;20491;-69
2021/08/06 00:24:43;;;;;;;1.08;1.05;;;;;;;14.23;100.00;95119.03;1038886;28;20785;-68
2021/08/06 00:25:13;;;;;;;1.38;1.02;;;;;;;14.33;100.00;95131.22;1030278;28;20041;-69
2021/08/06 00:25:43;;;;;;;1.60;0.95;;;;;;;14.32;100.00;95127.03;1030697;28;20033;-69
2021/08/06 00:26:14;;;;;;;2.28;1.00;;;;;;;14.29;100.00;95127.63;1026603;28;20389;-69
2021/08/06 00:26:44;;;;;;;1.10;1.00;;;;;;;14.30;100.00;95127.31;1026692;28;20019;-69
2021/08/06 00:27:15;;;;;;;4.75;1.27;;;;;;;14.27;100.00;95116.56;1030219;28;20023;-69
2021/08/06 00:27:46;;;;;;;1.17;1.08;;;;;;;14.34;100.00;95125.63;1034860;28;20026;-69
2021/08/06 00:28:16;;;;;;;1.25;1.15;;;;;;;14.33;100.00;95124.06;1035060;28;20398;-69
2021/08/06 00:28:47;;;;;;;1.35;1.20;;;;;;;14.33;100.00;95125.94;1040068;28;20020;-69
2021/08/06 00:29:18;;;;;;;1.02;0.95;;;;;;;14.33;100.00;95126.72;1030550;28;20019;-69
2021/08/06 00:29:48;;;;;;;1.88;1.05;;;;;;;14.25;100.00;95114.25;1030730;28;20038;-69
2021/08/06 00:30:19;;;;;;;1.15;0.88;;;;;;;14.32;100.00;95122.53;1027255;28;20412;-69
2021/08/06 00:30:49;;;;;;;1.48;1.02;;;;;;;14.28;100.00;95118.91;1030448;28;20105;-68
2021/08/06 00:31:20;;;;;;;1.48;1.10;;;;;;;14.28;100.00;95118.91;1030264;28;20034;-69
2021/08/06 00:31:50;;;;;;;1.50;0.95;;;;;;;14.39;100.00;95124.75;1029923;28;20535;-68
2021/08/06 00:32:21;;;;;;;0.90;0.90;;;;;;;14.36;100.00;95123.47;1033505;28;20026;-68
2021/08/06 00:32:51;;;;;;;2.95;1.30;;;;;;;14.36;100.00;95123.47;1038666;28;20025;-69
2021/08/06 00:33:22;;;;;;;1.25;0.80;;;;;;;14.37;100.00;95122.38;1034517;28;20087;-65
2021/08/06 00:33:52;;;;;;;1.75;1.33;;;;;;;14.38;100.00;95123.16;1042374;28;20024;-68
2021/08/06 00:34:23;;;;;;;1.95;0.90;;;;;;;14.31;100.00;95113.03;1038751;28;20029;-69
2021/08/06 00:34:53;;;;;;;1.65;1.20;;;;;;;14.39;100.00;95119.47;1038823;28;20025;-69
2021/08/06 00:35:23;;;;;;;3.15;1.13;;;;;;;14.42;100.00;95129.41;1029706;28;20030;-69
2021/08/06 00:35:54;;;;;;;1.50;0.85;;;;;;;14.43;100.00;95123.03;1030497;28;20026;-68
2021/08/06 00:36:24;;;;;;;1.90;1.10;;;;;;;14.43;100.00;95119.63;1030625;28;20031;-69
2021/08/06 00:36:55;;;;;;;1.27;1.00;;;;;;;14.39;100.00;95114.19;1030776;28;20635;-69
2021/08/06 00:37:25;;;;;;;1.10;1.00;;;;;;;14.43;100.00;95120.41;1033880;28;20407;-69
2021/08/06 00:37:56;;;;;;;1.10;0.90;;;;;;;14.38;100.00;95108.13;1034590;28;20103;-69
2021/08/06 00:38:26;;;;;;;1.38;1.27;;;;;;;14.45;100.00;95112.16;1034504;28;20021;-69
2021/08/06 00:38:57;;;;;;;2.92;1.00;;;;;;;14.45;100.00;95122.72;1034259;28;20029;-69
2021/08/06 00:39:27;;;;;;;1.90;1.02;;;;;;;14.46;100.00;95119.03;1034826;28;20034;-70
2021/08/06 00:39:57;;;;;;;3.28;1.20;;;;;;;14.48;100.00;95116.84;1034276;28;20049;-66
2021/08/06 00:40:28;;;;;;;4.07;1.48;;;;;;;14.49;100.00;95113.16;1041159;28;20017;-69
2021/08/06 00:40:58;;;;;;;1.20;0.95;;;;;;;14.49;100.00;95119.22;1042789;28;20093;-69
2021/08/06 00:41:29;;;;;;;1.75;1.08;;;;;;;14.48;100.00;95109.72;1043053;28;20040;-69
2021/08/06 00:41:59;;;;;;;2.75;1.30;;;;;;;14.49;100.00;95115.78;1029821;28;20026;-69
2021/08/06 00:42:30;;;;;;;2.13;1.08;;;;;;;14.48;100.00;95111.56;1029685;28;20034;-68
2021/08/06 00:43:00;;;;;;;1.55;1.35;;;;;;;14.50;100.00;95112.06;1034497;28;20053;-65
2021/08/06 00:43:31;;;;;;;0.90;0.90;;;;;;;14.44;100.00;95105.34;1034484;28;20037;-69
2021/08/06 00:44:01;;;;;;;1.58;1.27;;;;;;;14.49;100.00;95113.16;1033934;28;20849;-69
2021/08/06 00:44:32;;;;;;;1.25;1.10;;;;;;;14.44;100.00;95102.69;1034992;28;20037;-69
2021/08/06 00:45:03;;;;;;;1.20;1.10;;;;;;;14.51;100.00;95111.78;1030995;28;20030;-69
2021/08/06 00:45:34;;;;;;;0.88;0.88;;;;;;;14.51;100.00;95111.78;1035525;28;20712;-69
2021/08/06 00:46:05;;;;;;;2.95;1.08;;;;;;;14.50;100.00;95115.50;1042870;28;20083;-69
2021/08/06 00:46:35;;;;;;;4.18;1.10;;;;;;;14.49;100.00;95108.66;1038534;28;20068;-69
2021/08/06 00:47:05;;;;;;;1.98;0.95;;;;;;;14.48;100.00;95111.56;1034931;28;20029;-69
2021/08/06 00:47:36;;;;;;;0.95;0.82;;;;;;;14.39;100.00;95093.84;1034275;28;20025;-68
2021/08/06 00:48:07;;;;;;;1.27;0.80;;;;;;;14.50;100.00;95112.06;1039099;28;20162;-69
2021/08/06 00:48:37;;;;;;;0.90;0.90;;;;;;;14.43;100.00;95101.94;1035439;28;20036;-69
2021/08/06 00:49:08;;;;;;;2.53;1.70;;;;;;;14.47;100.00;95112.66;1031399;28;20523;-69
2021/08/06 00:49:38;;;;;;;1.00;0.90;;;;;;;14.47;100.00;95110.78;1031527;28;20737;-69
2021/08/06 00:50:10;;;;;;;1.95;1.17;;;;;;;14.48;100.00;95114.22;1042132;28;20652;-69
2021/08/06 00:50:41;;;;;;;1.85;1.20;;;;;;;14.47;100.00;95110.78;1043372;28;20414;-69
2021/08/06 00:51:11;;;;;;;1.58;1.08;;;;;;;14.47;100.00;95110.03;1044125;28;20029;-69
2021/08/06 00:51:41;;;;;;;3.80;1.17;;;;;;;14.47;100.00;95110.78;1042858;28;20556;-69
2021/08/06 00:52:13;;;;;;;1.35;1.23;;;;;;;14.48;100.00;95116.84;1031036;28;20030;-69
2021/08/06 00:52:44;;;;;;;1.52;1.00;;;;;;;14.45;100.00;95112.94;1027857;28;20240;-69
2021/08/06 00:53:14;;;;;;;4.10;1.27;;;;;;;14.45;100.00;95117.44;1027763;28;20042;-69
2021/08/06 00:53:45;;;;;;;2.40;1.10;;;;;;;14.44;100.00;95115.91;1027725;28;20026;-69
2021/08/06 00:54:16;;;;;;;0.70;0.70;;;;;;;14.44;100.00;95115.91;1031200;28;20030;-69
2021/08/06 00:54:47;;;;;;;1.35;1.10;;;;;;;14.41;100.00;95117.28;1035625;28;20697;-65
2021/08/06 00:55:17;;;;;;;1.05;0.95;;;;;;;14.42;100.00;95115.41;1031507;28;20034;-69
2021/08/06 00:55:48;;;;;;;2.00;1.05;;;;;;;14.35;100.00;95103.44;1031355;28;20022;-69
2021/08/06 00:56:18;;;;;;;1.17;1.08;;;;;;;14.38;100.00;95113.41;1027602;28;20062;-69
2021/08/06 00:56:49;;;;;;;1.77;1.15;;;;;;;14.40;100.00;95121.00;1027734;28;20042;-69
2021/08/06 00:57:19;;;;;;;2.03;1.10;;;;;;;14.39;100.00;95114.94;1023650;29;20027;-69
2021/08/06 00:57:50;;;;;;;1.10;1.00;;;;;;;14.37;100.00;95111.81;1026812;28;20039;-69
2021/08/06 00:58:23;;;;;;;1.27;0.95;;;;;;;14.40;100.00;95121.00;1035653;28;20029;-69
2021/08/06 00:58:54;;;;;;;2.95;1.13;;;;;;;14.29;100.00;95094.09;1036438;28;20087;-69
2021/08/06 00:59:24;;;;;;;1.20;1.10;;;;;;;14.39;100.00;95117.59;1037550;28;20095;-68
2021/08/06 00:59:55;;;;;;;2.15;1.25;;;;;;;14.38;100.00;95113.41;1031404;28;20034;-69
2021/08/06 01:00:25;;;;;;;1.40;1.02;;;;;;;14.39;100.00;95111.53;1031387;28;20583;-69
2021/08/06 01:00:56;;;;;;;2.17;0.98;;;;;;;14.39;100.00;95112.31;1031227;28;20385;-69
2021/08/06 01:01:27;;;;;;;1.00;0.95;;;;;;;14.37;100.00;95111.81;1031643;28;20037;-69
2021/08/06 01:02:02;;;;;;;3.17;1.10;;;;;;;14.38;100.00;95116.03;1038856;28;20116;-69
2021/08/06 01:02:55;;;;;;;1.10;1.00;;;;;;;14.37;100.00;95111.81;1038892;28;20087;-69
2021/08/06 01:03:38;;;;;;;1.48;1.10;;;;;;;14.36;100.00;95110.28;1035525;28;20037;-69
2021/08/06 01:04:15;;;;;;;3.28;1.23;;;;;;;14.28;100.00;95110.22;1036284;28;20090;-69
2021/08/06 01:05:06;;;;;;;1.15;0.95;;;;;;;14.29;100.00;95103.88;1031383;28;20037;-69
2021/08/06 01:05:40;;;;;;;1.80;1.20;;;;;;;14.33;100.00;95110.09;1031317;28;20117;-69
2021/08/06 01:06:20;;;;;;;1.25;1.00;;;;;;;14.32;100.00;95109.31;1028332;28;20037;-69
2021/08/06 01:06:56;;;;;;;1.45;0.95;;;;;;;14.33;100.00;95108.22;1027157;28;20061;-69
2021/08/06 01:07:34;;;;;;;2.13;0.90;;;;;;;14.27;100.00;95098.09;1034710;28;20065;-69
2021/08/06 01:08:14;;;;;;;1.15;1.00;;;;;;;14.31;100.00;95118.31;1034538;28;20766;-69
2021/08/06 01:09:17;;;;;;;1.88;1.15;;;;;;;14.33;100.00;95110.88;1035169;28;20076;-69
2021/08/06 01:09:59;;;;;;;2.22;0.98;;;;;;;14.30;100.00;95111.47;1021941;28;20055;-68
2021/08/06 01:10:55;;;;;;;3.03;0.95;;;;;;;14.28;100.00;95112.84;1023327;29;20101;-69
2021/08/06 01:11:26;;;;;;;1.13;1.10;;;;;;;14.23;100.00;95119.03;1035788;28;20025;-69
2021/08/06 01:11:58;;;;;;;1.25;1.13;;;;;;;14.07;100.00;95096.72;1030904;28;20026;-69
2021/08/06 01:12:52;;;;;;;0.93;0.93;;;;;;;14.17;100.00;95107.03;1031523;28;20030;-69
2021/08/06 01:13:43;;;;;;;1.88;1.15;;;;;;;14.18;100.00;95111.22;1031134;28;20535;-69
2021/08/06 01:14:19;;;;;;;1.13;1.05;;;;;;;14.13;100.00;95112.13;1039920;28;20276;-68
2021/08/06 01:14:50;;;;;;;1.30;1.20;;;;;;;14.11;100.00;95113.50;1040732;28;20034;-69
2021/08/06 01:15:20;;;;;;;3.53;1.10;;;;;;;14.11;100.00;95113.50;1035647;28;20276;-69
2021/08/06 01:15:52;;;;;;;1.20;1.10;;;;;;;14.09;100.00;95116.47;1027587;28;20023;-69
2021/08/06 01:16:27;;;;;;;1.65;1.25;;;;;;;14.02;100.00;95110.06;1033573;28;20034;-69
2021/08/06 01:16:58;;;;;;;1.60;1.20;;;;;;;14.08;100.00;95119.38;1035362;28;20121;-69
2021/08/06 01:17:33;;;;;;;1.75;1.25;;;;;;;14.06;100.00;95119.69;1039603;28;20104;-68
2021/08/06 01:18:04;;;;;;;1.75;1.27;;;;;;;14.03;100.00;95124.78;1031103;28;20439;-69
2021/08/06 01:18:34;;;;;;;1.00;0.90;;;;;;;14.00;100.00;95120.88;1025147;28;20409;-69
2021/08/06 01:19:46;;;;;;;2.58;1.17;;;;;;;14.00;100.00;95125.38;1031454;28;20031;-69
2021/08/06 01:20:22;;;;;;;1.33;1.00;;;;;;;13.95;100.00;95117.56;1033718;28;20026;-68
2021/08/06 01:20:56;;;;;;;2.13;1.10;;;;;;;13.88;100.00;95110.88;1039623;28;20275;-68
2021/08/06 01:21:26;;;;;;;1.60;1.30;;;;;;;13.91;100.00;95120.81;1035508;28;20085;-69
2021/08/06 01:22:00;;;;;;;1.85;1.15;;;;;;;13.92;100.00;95116.34;1030502;28;20811;-69
2021/08/06 01:22:46;;;;;;;1.52;1.20;;;;;;;13.90;100.00;95121.91;1035356;28;20029;-69
2021/08/06 01:23:25;;;;;;;1.30;1.20;;;;;;;13.86;100.00;95125.44;1031490;28;20054;-69
2021/08/06 01:23:56;;;;;;;1.02;0.93;;;;;;;13.87;100.00;95114.56;1025881;28;20305;-68
2021/08/06 01:24:26;;;;;;;1.23;1.13;;;;;;;13.82;100.00;95109.44;1023607;28;20274;-68
2021/08/06 01:25:08;;;;;;;1.60;1.10;;;;;;;13.88;100.00;95121.44;1033902;28;20022;-69
2021/08/06 01:25:53;;;;;;;0.98;0.90;;;;;;;13.80;100.00;95108.16;1030615;28;20026;-70
2021/08/06 01:26:23;;;;;;;2.67;1.10;;;;;;;13.84;100.00;95115.16;1031760;28;20108;-69
2021/08/06 01:26:55;;;;;;;1.67;1.20;;;;;;;13.82;100.00;95112.06;1032279;28;20018;-67
2021/08/06 01:27:25;;;;;;;1.20;1.10;;;;;;;13.80;100.00;95113.44;1030959;28;20535;-68
2021/08/06 01:27:56;;;;;;;2.10;1.30;;;;;;;13.74;100.00;95102.22;1039674;28;20260;-65
2021/08/06 01:28:28;;;;;;;1.00;0.93;;;;;;;13.78;100.00;95111.13;1031491;28;20057;-68
2021/08/06 01:28:59;;;;;;;1.63;1.17;;;;;;;13.71;100.00;95105.44;1035236;28;20381;-65
2021/08/06 01:29:29;;;;;;;1.27;1.17;;;;;;;13.78;100.00;95113.75;1039455;28;20022;-66
2021/08/06 01:30:00;;;;;;;1.88;1.25;;;;;;;13.76;100.00;95117.75;1043467;28;20020;-68
2021/08/06 01:30:30;;;;;;;1.23;1.10;;;;;;;13.67;100.00;95110.53;1031228;28;20018;-68
2021/08/06 01:31:01;;;;;;;2.45;1.30;;;;;;;13.70;100.00;95119.72;1035680;28;20017;-68
2021/08/06 01:31:31;;;;;;;1.40;1.30;;;;;;;13.70;100.00;95119.72;1031511;28;20018;-68
2021/08/06 01:32:02;;;;;;;1.40;1.30;;;;;;;13.67;100.00;95113.16;1030850;28;20037;-68
2021/08/06 01:32:32;;;;;;;4.22;1.30;;;;;;;13.66;100.00;95119.53;1034965;28;20100;-68
2021/08/06 01:33:03;;;;;;;2.17;1.33;;;;;;;13.67;100.00;95120.31;1039901;28;20038;-69
2021/08/06 01:33:33;;;;;;;2.17;1.40;;;;;;;13.66;100.00;95119.53;1048046;28;20508;-69
2021/08/06 01:34:04;;;;;;;2.50;1.17;;;;;;;13.65;100.00;95120.63;1041802;28;20546;-69
2021/08/06 01:34:34;;;;;;;1.92;1.00;;;;;;;13.64;100.00;95126.16;1043984;28;20033;-69
2021/08/06 01:35:07;;;;;;;1.35;1.25;;;;;;;13.60;100.00;95112.03;1035554;28;20038;-68
2021/08/06 01:35:37;;;;;;;3.28;1.13;;;;;;;13.56;100.00;95113.69;1031467;28;20034;-69
2021/08/06 01:36:08;;;;;;;3.13;1.25;;;;;;;13.63;100.00;95114.84;1035480;28;20472;-68
2021/08/06 01:36:38;;;;;;;1.08;0.98;;;;;;;13.63;100.00;95120.13;1031427;28;20038;-68
2021/08/06 01:37:09;;;;;;;4.40;1.30;;;;;;;13.63;100.00;95114.84;1030328;28;20031;-68
2021/08/06 01:37:39;;;;;;;1.38;1.27;;;;;;;13.62;100.00;95113.28;1027477;28;20505;-69
2021/08/06 01:38:10;;;;;;;1.67;1.20;;;;;;;13.63;100.00;95114.06;1031319;28;20555;-67
2021/08/06 01:38:40;;;;;;;1.40;1.10;;;;;;;13.62;100.00;95112.53;1031721;28;20026;-66
2021/08/06 01:39:11;;;;;;;1.73;1.25;;;;;;;13.61;100.00;95114.34;1039274;28;20083;-69
2021/08/06 01:39:41;;;;;;;1.50;1.00;;;;;;;13.60;100.00;95109.38;1035735;28;20487;-66
2021/08/06 01:40:12;;;;;;;1.70;1.33;;;;;;;13.55;100.00;95112.94;1035565;28;20025;-68
2021/08/06 01:41:00;;;;;;;1.17;1.08;;;;;;;13.57;100.00;95109.97;1036398;28;20068;-69
2021/08/06 01:41:55;;;;;;;0.98;0.90;;;;;;;13.53;100.00;95109.03;1038023;28;20026;-69
2021/08/06 01:42:29;;;;;;;1.48;1.20;;;;;;;13.48;100.00;95109.13;1046101;28;20295;-69
2021/08/06 01:43:19;;;;;;;1.73;1.60;;;;;;;13.47;100.00;95104.94;1047024;28;20314;-64
2021/08/06 01:44:00;;;;;;;4.60;1.27;;;;;;;13.37;100.00;95096.16;1036508;28;20843;-68
2021/08/06 01:44:34;;;;;;;2.45;1.35;;;;;;;13.42;100.00;95106.59;1030528;28;20026;-67
2021/08/06 01:45:07;;;;;;;1.30;1.20;;;;;;;13.39;100.00;95098.50;1030932;28;20086;-65
2021/08/06 01:45:38;;;;;;;2.67;1.30;;;;;;;13.39;100.00;95104.56;1033078;28;20273;-68
2021/08/06 01:46:25;;;;;;;1.77;1.50;;;;;;;13.34;100.00;95096.75;1034784;28;20026;-65
2021/08/06 01:47:15;;;;;;;3.30;1.52;;;;;;;13.35;100.00;95108.84;1035297;28;20260;-68
2021/08/06 01:47:47;;;;;;;2.10;1.13;;;;;;;13.30;100.00;95095.78;1043307;28;20351;-68
2021/08/06 01:48:19;;;;;;;1.55;1.35;;;;;;;13.33;100.00;95104.94;1039225;28;20272;-66
2021/08/06 01:48:52;;;;;;;1.33;1.23;;;;;;;13.33;100.00;95105.72;1038479;28;20025;-68
2021/08/06 01:49:47;;;;;;;0.95;0.95;;;;;;;13.33;100.00;95111.00;1034620;28;20040;-65
2021/08/06 01:50:40;;;;;;;3.45;1.27;;;;;;;13.29;100.00;95096.84;1035129;28;20264;-69
2021/08/06 01:51:10;;;;;;;5.35;1.77;;;;;;;13.27;100.00;95111.41;1033353;28;20794;-68
2021/08/06 01:51:42;;;;;;;2.13;1.00;;;;;;;13.20;100.00;95090.69;1034681;28;20257;-66
2021/08/06 01:52:13;;;;;;;1.92;1.20;;;;;;;13.21;100.00;95097.50;1030263;28;20109;-69
2021/08/06 01:53:01;;;;;;;4.63;1.25;;;;;;;13.17;100.00;95104.44;1030707;28;20254;-69
2021/08/06 01:53:32;;;;;;;3.28;1.30;;;;;;;13.15;100.00;95106.59;1031384;28;20839;-69
2021/08/06 01:54:02;;;;;;;1.55;1.45;;;;;;;13.16;100.00;95105.53;1031322;28;20265;-69
2021/08/06 01:54:33;;;;;;;1.40;1.23;;;;;;;13.10;100.00;95104.06;1027039;28;20018;-68
2021/08/06 01:55:05;;;;;;;3.08;1.33;;;;;;;13.10;100.00;95101.44;1031351;28;20022;-69
2021/08/06 01:55:41;;;;;;;3.00;1.40;;;;;;;13.09;100.00;95099.88;1033277;28;20041;-69
2021/08/06 01:56:16;;;;;;;4.43;1.25;;;;;;;13.02;100.00;95092.38;1032540;28;20272;-68
2021/08/06 01:56:47;;;;;;;1.33;1.15;;;;;;;13.09;100.00;95107.78;1030634;28;20765;-69
2021/08/06 01:57:17;;;;;;;3.47;1.52;;;;;;;13.02;100.00;95104.75;1035139;28;20261;-69
2021/08/06 01:57:48;;;;;;;2.13;1.55;;;;;;;13.05;100.00;95107.59;1035398;28;20065;-69
2021/08/06 01:58:18;;;;;;;3.08;1.42;;;;;;;13.03;100.00;95099.19;1030140;28;20026;-70
2021/08/06 01:58:54;;;;;;;2.15;1.60;;;;;;;13.01;100.00;95096.09;1027238;28;20664;-68
2021/08/06 01:59:25;;;;;;;2.47;1.40;;;;;;;12.98;100.00;95094.03;1035301;28;20395;-69
2021/08/06 01:59:57;;;;;;;4.28;1.42;;;;;;;12.89;100.00;95091.28;1038734;28;20288;-66
2021/08/06 02:00:27;;;;;;;1.80;1.60;;;;;;;12.96;100.00;95091.69;1031122;28;20786;-68
2021/08/06 02:00:58;;;;;;;1.20;1.10;;;;;;;13.01;100.00;95103.19;1030901;28;20261;-69
2021/08/06 02:01:28;;;;;;;1.50;1.40;;;;;;;13.02;100.00;95095.00;1039624;28;20808;-69
2021/08/06 02:01:59;;;;;;;2.75;1.33;;;;;;;12.94;100.00;95101.75;1036809;28;20095;-68
2021/08/06 02:02:31;;;;;;;2.95;1.65;;;;;;;13.01;100.00;95105.81;1042843;28;20505;-69
2021/08/06 02:03:01;;;;;;;3.28;1.35;;;;;;;12.98;100.00;95099.31;1044083;28;20025;-69
2021/08/06 02:03:31;;;;;;;2.25;1.30;;;;;;;13.05;100.00;95107.59;1039313;28;20347;-69
2021/08/06 02:04:02;;;;;;;4.55;1.45;;;;;;;13.03;100.00;95101.81;1030971;28;20026;-69
2021/08/06 02:04:32;;;;;;;4.45;1.45;;;;;;;13.01;100.00;95103.19;1035707;28;20030;-69
2021/08/06 02:05:03;;;;;;;1.40;1.30;;;;;;;12.98;100.00;95100.06;1039206;28;20543;-69
2021/08/06 02:05:33;;;;;;;2.10;1.40;;;;;;;12.97;100.00;95103.00;1047833;28;20032;-70
2021/08/06 02:06:04;;;;;;;1.20;1.10;;;;;;;12.97;100.00;95098.50;1043433;28;20028;-69
2021/08/06 02:06:34;;;;;;;1.65;1.50;;;;;;;12.94;100.00;95090.41;1041261;28;20108;-68
2021/08/06 02:07:05;;;;;;;1.85;1.40;;;;;;;12.94;100.00;95091.22;1035268;28;20022;-68
2021/08/06 02:07:35;;;;;;;2.92;1.30;;;;;;;12.96;100.00;95091.69;1035174;28;20025;-69
2021/08/06 02:08:08;;;;;;;2.20;1.30;;;;;;;12.88;100.00;95087.09;1031666;28;20034;-69
2021/08/06 02:08:39;;;;;;;2.10;1.50;;;;;;;12.96;100.00;95096.94;1028381;28;20019;-69
2021/08/06 02:09:18;;;;;;;2.95;1.83;;;;;;;12.88;100.00;95084.47;1035798;28;20272;-69
2021/08/06 02:09:49;;;;;;;2.47;1.50;;;;;;;12.94;100.00;95090.41;1035172;28;20018;-69
2021/08/06 02:10:19;;;;;;;1.55;1.38;;;;;;;12.86;100.00;95080.56;1035308;28;20273;-69
2021/08/06 02:10:50;;;;;;;1.48;1.38;;;;;;;12.90;100.00;95098.09;1031319;28;20039;-69
2021/08/06 02:11:20;;;;;;;1.63;1.52;;;;;;;12.80;100.00;95071.97;1035219;28;20070;-68
2021/08/06 02:11:52;;;;;;;1.70;1.40;;;;;;;12.93;100.00;95091.47;1030065;28;20026;-68
2021/08/06 02:12:22;;;;;;;1.25;1.15;;;;;;;12.91;100.00;95089.16;1035314;28;20053;-68
2021/08/06 02:12:53;;;;;;;3.28;1.30;;;;;;;12.91;100.00;95083.88;1035283;28;20273;-68
2021/08/06 02:13:23;;;;;;;1.85;1.50;;;;;;;12.86;100.00;95083.97;1030640;28;20037;-69
2021/08/06 02:13:54;;;;;;;3.90;1.58;;;;;;;12.88;100.00;95088.97;1035516;28;20037;-69
2021/08/06 02:14:24;;;;;;;2.28;1.58;;;;;;;12.80;100.00;95079.88;1026772;28;20031;-67
2021/08/06 02:14:54;;;;;;;2.60;1.40;;;;;;;12.81;100.00;95081.44;1030291;28;20904;-69
2021/08/06 02:15:25;;;;;;;3.60;1.55;;;;;;;12.84;100.00;95078.22;1027149;28;20038;-68
2021/08/06 02:15:56;;;;;;;3.92;1.45;;;;;;;12.83;100.00;95084.56;1031485;28;20030;-69
2021/08/06 02:16:26;;;;;;;1.95;1.40;;;;;;;12.88;100.00;95087.09;1031134;28;20030;-69
2021/08/06 02:16:57;;;;;;;2.53;1.30;;;;;;;12.81;100.00;95073.56;1035983;28;20021;-69
2021/08/06 02:17:28;;;;;;;1.20;1.10;;;;;;;12.88;100.00;95084.47;1033287;28;20037;-69
2021/08/06 02:17:58;;;;;;;1.50;1.35;;;;;;;12.83;100.00;95081.94;1030943;28;20101;-69
2021/08/06 02:18:30;;;;;;;2.03;1.55;;;;;;;12.86;100.00;95089.25;1033101;28;20022;-69
2021/08/06 02:19:01;;;;;;;2.55;1.50;;;;;;;12.81;100.00;95078.81;1035300;28;20387;-68
2021/08/06 02:19:31;;;;;;;6.28;1.58;;;;;;;12.81;100.00;95089.34;1039086;28;20260;-66
2021/08/06 02:20:06;;;;;;;1.65;1.55;;;;;;;12.81;100.00;95091.97;1030951;28;20396;-69
2021/08/06 02:20:36;;;;;;;1.92;1.30;;;;;;;12.77;100.00;95077.81;1035443;28;20033;-69
2021/08/06 02:21:09;;;;;;;1.77;1.63;;;;;;;12.83;100.00;95092.47;1034901;28;20261;-68
2021/08/06 02:21:40;;;;;;;1.63;1.40;;;;;;;12.82;100.00;95093.53;1033648;28;20120;-65
2021/08/06 02:22:11;;;;;;;5.10;1.55;;;;;;;12.79;100.00;95086.22;1026914;28;20353;-69
2021/08/06 02:22:42;;;;;;;2.83;1.70;;;;;;;12.84;100.00;95093.22;1026719;28;20038;-65
2021/08/06 02:23:12;;;;;;;4.10;1.38;;;;;;;12.77;100.00;95083.09;1030801;28;20838;-68
2021/08/06 02:23:48;;;;;;;2.33;1.50;;;;;;;12.80;100.00;95087.78;1031147;28;20328;-69
2021/08/06 02:24:18;;;;;;;2.67;1.80;;;;;;;12.80;100.00;95092.25;1035333;28;20530;-69
2021/08/06 02:24:49;;;;;;;1.90;1.42;;;;;;;12.77;100.00;95085.72;1032493;28;20359;-69
2021/08/06 02:25:21;;;;;;;2.28;1.58;;;;;;;12.79;100.00;95090.72;1032788;28;20093;-68
2021/08/06 02:25:52;;;;;;;1.50;1.40;;;;;;;12.78;100.00;95094.41;1033485;28;20409;-70
2021/08/06 02:26:23;;;;;;;1.55;1.45;;;;;;;12.74;100.00;95083.66;1034623;28;20280;-68
2021/08/06 02:26:53;;;;;;;1.67;1.58;;;;;;;12.76;100.00;95086.81;1033906;28;20265;-69
2021/08/06 02:27:24;;;;;;;1.30;1.20;;;;;;;12.76;100.00;95089.44;1035293;28;20036;-68
2021/08/06 02:27:54;;;;;;;3.90;1.23;;;;;;;12.75;100.00;95093.16;1029979;28;20138;-68
2021/08/06 02:28:24;;;;;;;2.20;1.60;;;;;;;12.68;100.00;95074.31;1030881;28;20025;-68
2021/08/06 02:28:55;;;;;;;3.15;1.70;;;;;;;12.74;100.00;95083.66;1038078;28;20029;-68
2021/08/06 02:29:26;;;;;;;3.33;1.45;;;;;;;12.76;100.00;95089.44;1035085;28;20034;-68
2021/08/06 02:29:57;;;;;;;1.90;1.60;;;;;;;12.73;100.00;95087.38;1033540;28;20022;-69
2021/08/06 02:30:29;;;;;;;5.13;2.00;;;;;;;12.75;100.00;95093.16;1038581;28;20286;-69
2021/08/06 02:30:59;;;;;;;1.50;1.40;;;;;;;12.76;100.00;95086.81;1039666;28;20268;-68
2021/08/06 02:31:29;;;;;;;1.73;1.55;;;;;;;12.76;100.00;95086.81;1035184;28;20265;-68